Copper Mountain, CO

11:10 AM MDT on September 20, 2014 (GMT -0600)
Frisco Downtown Main and 1st | Change Station
CLOSE
Current Station
Personal Weather Station
Location: Frisco, CO
Elevation: 9091 ft
Nearby Weather Stations

Elev 9091 ft 39.57 °N, 106.10 °W | Updated 0 second ago

Clear
Clear
62.8 °F
Feels Like 62.8 °F
N
2.2
Wind Variable Wind from WSW
Gusts 2.5 mph

Today
High -- | Low -- °F
--% Chance of Precip.
Yesterday
High -- | Low -- °F
Precip. -- in
6:50 AM 7:04 PM
Waning Crescent, 11% visible
Pressure 30.04 in
Visibility 10.0 miles
Clouds Clear
Dew Point 39 °F
Humidity 42%
Rainfall 0.00 in
Snow Depth 0 in , 0 in , 0 in
UV 7 out of 12
Pollen 6.70 out of 12
Air Quality Not available.
Flu Activity Not available.
METAR KLXV 201653Z AUTO 00000KT 10SM CLR 16/01 A3051 RMK AO2 SLP171 T01610011

More Conditions Fewer Conditions

Pressure 30.04 in
Visibility 10.0 miles
Clouds Clear
Dew Point 39 °F
Humidity 42%
Rainfall 0.00 in
Snow Depth 0 in , 0 in , 0 in
UV 7 out of 12
Pollen 6.70 out of 12
Air Quality Not available.
Flu Activity Not available.
METAR KLXV 201653Z AUTO 00000KT 10SM CLR 16/01 A3051 RMK AO2 SLP171 T01610011

More Conditions Fewer Conditions

10-Day Weather Forecast

Almanac

Astronomy

Sep. 20, 2014 Rise Set
Actual Time 6:50 AM MDT 7:04 PM MDT
Civil Twilight 6:23 AM MDT 7:31 PM MDT
Nautical Twilight 5:51 AM MDT 8:02 PM MDT
Astronomical Twilight 5:19 AM MDT 8:35 PM MDT
Moon 3:32 AM MDT 5:09 PM MDT
Length of Visible Light 13h 08m
Length of Day
12h 14m
Tomorrow will be 2m 34s shorter.
Waning Crescent, 11% of the Moon is Illuminated
Today
Waning Crescent
Sep 24
New
Oct 1
First Quarter
Oct 8
Full
Oct 15
Last Quarter

Today's Extremes

State Highs State Lows

Community

WunderPhotos

Upload Photos

1,754,906 photos uploaded!

Nearby

Snow Depth

Station Depth Elevation
Porphyry Creek 0 in 10760 ft
Niwot 0 in 9910 ft
Columbus Basin 0 in 10785 ft
Wild Basin 0 in 9560 ft
Lone Cone 1 in 9600 ft

Earthquake Activity

City Distance Mag. Time & Date
No recent earthquake activity has been reported nearby.
Minimum magnitude displayed is 2.5.

Coastal Water Temperatures

Place Temperature
No Stations Reporting

Nearby Weather Stations